Weather History for KMKT - December, 2012

Change the Weather History Date:

Thursday, December 6, 2012

  Actual Average Record
Temperature  
Mean Temperature 37 °F -  
Max Temperature 44 °F 32 °F 44 °F (2002)
Min Temperature 30 °F 19 °F -9 °F (2005)
Degree Days  
Heating Degree Days 28    
Moisture  
Dew Point 29 °F    
Average Humidity 64    
Maximum Humidity 81    
Minimum Humidity 53    
Precipitation  
Precipitation 0.00 in - - ()
Sea Level Pressure  
Sea Level Pressure 29.88 in    
Wind  
Wind Speed 17 mph (WNW)    
Max Wind Speed 25 mph    
Max Gust Speed 32 mph    
Visibility 10 miles    
Events      
Averages and records for this station are not official NWS values.
T = Trace of Precipitation, MM = Missing Value Source: NWS Daily Summary

Daily Weather History Graph

Daily Weather History Graph

Search for Another Location

Airport or City:

Trip Planner

Search our weather history database for the weather conditions in past years. The results will help you decide how hot, cold, wet, or windy it might be!

Date:

Astronomy

Dec. 06, 2012 Rise Set
Actual Time 7:36 AM CST 4:36 PM CST
Civil Twilight 7:04 AM CST 5:09 PM CST
Nautical Twilight 6:27 AM CST 5:46 PM CST
Astronomical Twilight 5:52 AM CST 6:21 PM CST
Moon No Moon Rise 12:17 PM CST (12/6)
Length of Visible Light 10h 05m
Length of Day
8h 59m
Waning Gibbous, 49% of the Moon is Illuminated
Dec 6
Waning Gibbous
Dec 13
New
Dec 19
First Quarter
Dec 28
Full
Jan 4
Last Quarter

Hourly Weather History & Observations

Time (CST) Temp. Windchill Dew Point Humidity Pressure Visibility Wind Dir Wind Speed Gust Speed Precip Events Conditions
12:15 AM 42.8 °F 34.3 °F 28.4 °F 57% 29.83 in 10.0 mi South 19.6 mph 29.9 mph N/A   Overcast
12:35 AM 44.6 °F 35.9 °F 28.4 °F 53% 29.82 in 10.0 mi South 23.0 mph 31.1 mph N/A   Overcast
12:55 AM 44.6 °F 36.4 °F 30.2 °F 57% 29.81 in 10.0 mi South 20.7 mph 32.2 mph N/A   Overcast
1:15 AM 44.6 °F 35.9 °F 30.2 °F 57% 29.80 in 10.0 mi South 23.0 mph 32.2 mph N/A   Overcast
1:35 AM 44.6 °F 35.9 °F 30.2 °F 57% 29.80 in 10.0 mi South 23.0 mph 29.9 mph N/A   Scattered Clouds
1:55 AM 44.6 °F 36.9 °F 32.0 °F 61% 29.80 in 10.0 mi South 18.4 mph 29.9 mph N/A   Mostly Cloudy
2:15 AM 44.6 °F 36.4 °F 32.0 °F 61% 29.80 in 10.0 mi South 20.7 mph 28.8 mph N/A   Mostly Cloudy
2:35 AM 44.6 °F 35.5 °F 33.8 °F 66% 29.80 in 10.0 mi South 25.3 mph 31.1 mph N/A   Overcast
2:55 AM 42.8 °F 34.5 °F 33.8 °F 70% 29.79 in 10.0 mi South 18.4 mph 28.8 mph N/A   Overcast
3:15 AM 42.8 °F 34.5 °F 33.8 °F 70% 29.80 in 10.0 mi South 18.4 mph 27.6 mph N/A   Overcast
3:35 AM 42.8 °F 35.1 °F 35.6 °F 76% 29.79 in 10.0 mi South 16.1 mph 21.9 mph N/A   Overcast
3:55 AM 42.8 °F 35.4 °F 35.6 °F 76% 29.79 in 10.0 mi South 15.0 mph 21.9 mph N/A   Overcast
4:15 AM 42.8 °F 35.8 °F 35.6 °F 76% 29.80 in 10.0 mi SSW 13.8 mph 20.7 mph N/A   Overcast
4:35 AM 42.8 °F 35.1 °F 35.6 °F 76% 29.81 in 10.0 mi SSW 16.1 mph 24.2 mph N/A   Overcast
4:55 AM 42.8 °F 35.4 °F 35.6 °F 76% 29.81 in 10.0 mi SSW 15.0 mph 24.2 mph N/A   Overcast
5:15 AM 42.8 °F 34.5 °F 35.6 °F 76% 29.80 in 10.0 mi South 18.4 mph 21.9 mph N/A   Overcast
5:35 AM 42.8 °F 35.1 °F 35.6 °F 76% 29.81 in 10.0 mi South 16.1 mph 19.6 mph N/A   Overcast
5:55 AM 42.8 °F 35.4 °F 35.6 °F 76% 29.81 in 10.0 mi SSW 15.0 mph 21.9 mph N/A   Overcast
6:15 AM 42.8 °F 35.4 °F 35.6 °F 76% 29.81 in 10.0 mi South 15.0 mph - N/A   Overcast
6:35 AM 42.8 °F 36.6 °F 35.6 °F 76% 29.82 in 10.0 mi SSW 11.5 mph 18.4 mph N/A   Overcast
6:55 AM 42.8 °F 36.2 °F 35.6 °F 76% 29.81 in 10.0 mi SSW 12.7 mph - N/A   Overcast
7:15 AM 42.8 °F 37.0 °F 35.6 °F 76% 29.81 in 10.0 mi SSW 10.4 mph - N/A   Overcast
7:35 AM 42.8 °F 36.6 °F 35.6 °F 76% 29.80 in 10.0 mi SSW 11.5 mph - N/A   Overcast
7:55 AM 41.0 °F 34.3 °F 35.6 °F 81% 29.82 in 10.0 mi SW 11.5 mph - N/A   Mostly Cloudy
8:15 AM 42.8 °F 36.2 °F 35.6 °F 76% 29.83 in 10.0 mi SW 12.7 mph - N/A   Overcast
8:35 AM 42.8 °F 35.4 °F 35.6 °F 76% 29.84 in 10.0 mi WSW 15.0 mph - N/A   Overcast
9:15 AM 42.8 °F 35.1 °F 30.2 °F 61% 29.85 in 10.0 mi NW 16.1 mph 24.2 mph N/A   Mostly Cloudy
9:35 AM 42.8 °F 34.8 °F 30.2 °F 61% 29.86 in 10.0 mi NW 17.3 mph - N/A   Mostly Cloudy
9:55 AM 41.0 °F 32.8 °F 30.2 °F 65% 29.87 in 10.0 mi NW 16.1 mph 24.2 mph N/A   Scattered Clouds
10:15 AM 39.2 °F 31.2 °F 30.2 °F 70% 29.88 in 10.0 mi WNW 13.8 mph 26.5 mph N/A   Clear
10:35 AM 39.2 °F 31.2 °F 30.2 °F 70% 29.88 in 10.0 mi NW 13.8 mph 19.6 mph N/A   Clear
10:55 AM 39.2 °F 31.6 °F 30.2 °F 70% 29.88 in 10.0 mi NW 12.7 mph - N/A   Clear
11:15 AM 39.2 °F 30.8 °F 30.2 °F 70% 29.87 in 10.0 mi NW 15.0 mph 20.7 mph N/A   Clear
11:35 AM 42.8 °F 34.5 °F 30.2 °F 61% 29.87 in 10.0 mi NW 18.4 mph 23.0 mph N/A   Clear
11:55 AM 42.8 °F 34.5 °F 30.2 °F 61% 29.87 in 10.0 mi NW 18.4 mph 24.2 mph N/A   Clear
12:15 PM 42.8 °F 34.8 °F 30.2 °F 61% 29.87 in 10.0 mi NW 17.3 mph 23.0 mph N/A   Clear
12:35 PM 44.6 °F 38.1 °F 30.2 °F 57% 29.87 in 10.0 mi NW 13.8 mph - N/A   Clear
12:55 PM 44.6 °F 36.9 °F 28.4 °F 53% 29.87 in 10.0 mi WNW 18.4 mph - N/A   Clear
1:15 PM 44.6 °F 38.4 °F 28.4 °F 53% 29.88 in 10.0 mi NW 12.7 mph 23.0 mph N/A   Clear
1:35 PM 44.6 °F 37.4 °F 28.4 °F 53% 29.88 in 10.0 mi NW 16.1 mph 20.7 mph N/A   Clear
1:55 PM 44.6 °F 37.4 °F 28.4 °F 53% 29.88 in 10.0 mi NW 16.1 mph 23.0 mph N/A   Clear
2:15 PM 44.6 °F 37.4 °F 28.4 °F 53% 29.88 in 10.0 mi NW 16.1 mph - N/A   Clear
2:35 PM 44.6 °F 38.8 °F 28.4 °F 53% 29.88 in 10.0 mi NW 11.5 mph - N/A   Clear
2:55 PM 42.8 °F 35.1 °F 28.4 °F 57% 29.89 in 10.0 mi NW 16.1 mph 19.6 mph N/A   Mostly Cloudy
3:15 PM 42.8 °F 35.4 °F 26.6 °F 53% 29.89 in 10.0 mi NW 15.0 mph - N/A   Mostly Cloudy
3:35 PM 42.8 °F 35.1 °F 26.6 °F 53% 29.90 in 10.0 mi NW 16.1 mph 21.9 mph N/A   Scattered Clouds
3:55 PM 42.8 °F 35.8 °F 26.6 °F 53% 29.91 in 10.0 mi NW 13.8 mph 19.6 mph N/A   Mostly Cloudy
4:15 PM 41.0 °F 34.3 °F 26.6 °F 57% 29.92 in 10.0 mi NW 11.5 mph - N/A   Overcast
4:35 PM 39.2 °F 32.5 °F 26.6 °F 61% 29.92 in 10.0 mi NW 10.4 mph - N/A   Mostly Cloudy
4:55 PM 39.2 °F 33.6 °F 26.6 °F 61% 29.93 in 10.0 mi NW 8.1 mph - N/A   Scattered Clouds
5:15 PM 39.2 °F 33.0 °F 26.6 °F 61% 29.93 in 10.0 mi NW 9.2 mph - N/A   Mostly Cloudy
5:35 PM 39.2 °F 32.5 °F 26.6 °F 61% 29.93 in 10.0 mi NNW 10.4 mph - N/A   Overcast
5:55 PM 39.2 °F 32.5 °F 26.6 °F 61% 29.93 in 10.0 mi NNW 10.4 mph - N/A   Mostly Cloudy
6:15 PM 39.2 °F 32.5 °F 26.6 °F 61% 29.94 in 10.0 mi NNW 10.4 mph - N/A   Partly Cloudy
6:35 PM 37.4 °F 29.3 °F 26.6 °F 65% 29.95 in 10.0 mi NNW 12.7 mph - N/A   Clear
7:15 PM 37.4 °F 28.9 °F 24.8 °F 60% 29.96 in 10.0 mi NNW 13.8 mph - N/A   Partly Cloudy
7:35 PM 37.4 °F 28.2 °F 23.0 °F 56% 29.96 in 10.0 mi NNW 16.1 mph 21.9 mph N/A   Partly Cloudy
7:55 PM 35.6 °F 26.6 °F 23.0 °F 60% 29.97 in 10.0 mi NNW 13.8 mph - N/A   Scattered Clouds
8:35 PM 35.6 °F 26.6 °F 21.2 °F 56% 29.98 in 10.0 mi NNW 13.8 mph 19.6 mph N/A   Clear
8:55 PM 33.8 °F 25.8 °F 23.0 °F 65% 29.98 in 10.0 mi NNW 10.4 mph - N/A   Clear
9:15 PM 33.8 °F 23.9 °F 21.2 °F 60% 29.98 in 10.0 mi NNW 15.0 mph - N/A   Clear
9:35 PM 33.8 °F 24.3 °F 21.2 °F 60% 29.99 in 10.0 mi NNW 13.8 mph - N/A   Clear
9:55 PM 33.8 °F 24.3 °F 21.2 °F 60% 29.99 in 10.0 mi NNW 13.8 mph - N/A   Partly Cloudy
10:15 PM 32.0 °F 23.0 °F 21.2 °F 64% 30.00 in 10.0 mi NNW 11.5 mph 16.1 mph N/A   Clear
10:35 PM 30.2 °F 20.8 °F 21.2 °F 69% 30.00 in 10.0 mi North 11.5 mph - N/A   Clear
10:55 PM 30.2 °F 20.2 °F 19.4 °F 64% 29.99 in 10.0 mi NNW 12.7 mph - N/A   Clear
11:15 PM 30.2 °F 21.3 °F 19.4 °F 64% 30.00 in 10.0 mi North 10.4 mph - N/A   Clear
11:35 PM 30.2 °F 21.3 °F 19.4 °F 64% 30.01 in 10.0 mi North 10.4 mph - N/A   Clear
11:55 PM 30.2 °F 21.9 °F 19.4 °F 64% 30.00 in 10.0 mi North 9.2 mph - N/A   Partly Cloudy